Terminal Aerodrome Forecast
Issued by NWS

Home | Current Version | Previous Version | Text Only | Print | Product List | Glossary Off
Versions: 1 2 3 4 5 6 7 8 9 10 11 12 13 14 15 16 17 18 19 20 21 22 23 24 25 26 27 28 29 30 31 32

787
FTUS43 KGRB 200930 AAA
TAFATW
TAF AMD
KATW 200930Z 2010/2106 26011G16KT P6SM SCT006 BKN100
      TEMPO 2010/2012 BKN006 BKN012
     FM201200 27007KT P6SM SCT030 BKN100
     FM201800 30007KT P6SM SCT030 BKN100
     FM210100 VRB03KT P6SM SKC=

USA.gov is the U.S. government's official web portal to all federal, state and local government web resources and services.